Time;durP1;ratioP1;P1;durP2;ratioP2;P2;SDS_P1;SDS_P2;PMS_P1;PMS_P2;Temp;Humidity;BMP_temperature;BMP_pressure;BME280_temperature;BME280_humidity;BME280_pressure;Samples;Min_cycle;Max_cycle;Signal;HPM_P1;HPM_P2
2022/03/04 00:00:27;;;;;;;26.30;11.77;;;1.80;99.90;;;;;;5021278;28;20196;-69
2022/03/04 00:02:54;;;;;;;24.73;11.20;;;1.80;99.90;;;;;;5019779;28;20124;-69
2022/03/04 00:05:20;;;;;;;26.35;10.48;;;1.80;99.90;;;;;;5013850;28;20574;-68
2022/03/04 00:07:45;;;;;;;30.03;11.20;;;1.70;99.90;;;;;;5021738;28;20041;-69
2022/03/04 00:10:11;;;;;;;18.77;10.30;;;1.70;99.90;;;;;;5010606;28;20033;-69
2022/03/04 00:12:37;;;;;;;22.67;9.93;;;1.70;99.90;;;;;;5019991;28;20052;-68
2022/03/04 00:15:04;;;;;;;22.63;10.32;;;1.70;99.90;;;;;;5027505;28;20125;-68
2022/03/04 00:17:30;;;;;;;22.40;9.52;;;1.60;99.90;;;;;;5019498;28;20045;-69
2022/03/04 00:19:55;;;;;;;19.37;8.93;;;1.60;99.90;;;;;;5020090;28;20320;-68
2022/03/04 00:22:21;;;;;;;27.60;9.47;;;1.60;99.90;;;;;;5019387;28;20043;-69
2022/03/04 00:24:47;;;;;;;21.97;9.10;;;1.50;99.90;;;;;;5022663;28;20025;-69
2022/03/04 00:27:12;;;;;;;23.40;8.83;;;1.50;99.90;;;;;;5019137;28;20045;-68
2022/03/04 00:29:38;;;;;;;17.77;9.10;;;1.50;99.90;;;;;;5020675;28;20049;-69
2022/03/04 00:32:04;;;;;;;23.37;8.47;;;1.50;99.90;;;;;;5019142;28;20040;-69
2022/03/04 00:34:29;;;;;;;20.43;8.93;;;1.50;99.90;;;;;;5021186;28;20107;-68
2022/03/04 00:36:55;;;;;;;20.50;8.10;;;1.50;99.90;;;;;;5019168;28;20037;-69
2022/03/04 00:39:20;;;;;;;25.20;8.87;;;1.40;99.90;;;;;;5019451;28;20036;-68
2022/03/04 00:41:46;;;;;;;19.90;9.47;;;1.40;99.90;;;;;;5019630;28;20045;-68
2022/03/04 00:44:12;;;;;;;17.07;8.50;;;1.40;99.90;;;;;;5020723;28;20048;-68
2022/03/04 00:46:37;;;;;;;18.00;8.73;;;1.30;99.90;;;;;;5002643;28;20373;-68
2022/03/04 00:49:04;;;;;;;17.33;7.77;;;1.30;99.90;;;;;;5020227;28;20041;-67
2022/03/04 00:51:33;;;;;;;22.55;8.88;;;1.30;99.90;;;;;;5005642;28;20121;-67
2022/03/04 00:54:00;;;;;;;21.48;8.10;;;1.30;99.90;;;;;;5008353;28;20156;-68
2022/03/04 00:56:26;;;;;;;18.75;7.57;;;1.30;99.90;;;;;;5017144;28;20053;-67
2022/03/04 00:58:55;;;;;;;19.80;8.55;;;1.30;99.90;;;;;;5025721;28;20508;-68
2022/03/04 01:01:21;;;;;;;17.73;8.27;;;1.20;99.90;;;;;;5041926;22;20064;-69
2022/03/04 01:03:47;;;;;;;15.15;6.85;;;1.20;99.90;;;;;;5030300;28;20052;-69
2022/03/04 01:06:13;;;;;;;17.05;7.75;;;1.20;99.90;;;;;;5029492;28;20071;-69
2022/03/04 01:08:39;;;;;;;17.30;7.80;;;1.20;99.90;;;;;;5053013;28;20076;-69
2022/03/04 01:11:05;;;;;;;17.65;7.13;;;1.10;99.90;;;;;;5041231;28;20109;-69
2022/03/04 01:13:31;;;;;;;20.80;8.38;;;1.10;99.90;;;;;;5047006;28;20334;-69
2022/03/04 01:15:57;;;;;;;14.40;6.85;;;1.10;99.90;;;;;;5039277;28;20041;-70
2022/03/04 01:18:23;;;;;;;20.80;8.07;;;1.10;99.90;;;;;;5045815;28;20043;-69
2022/03/04 01:20:50;;;;;;;15.75;7.22;;;1.00;99.90;;;;;;5027266;28;20033;-69
2022/03/04 01:23:15;;;;;;;16.98;7.97;;;1.00;99.90;;;;;;5036598;28;20193;-69
2022/03/04 01:25:41;;;;;;;15.87;7.40;;;1.00;99.90;;;;;;5035409;28;20475;-69
2022/03/04 01:28:07;;;;;;;16.87;7.20;;;1.00;99.90;;;;;;5036198;28;20036;-69
2022/03/04 01:30:32;;;;;;;14.47;6.27;;;1.00;99.90;;;;;;5041264;28;20041;-69
2022/03/04 01:32:58;;;;;;;15.33;6.87;;;1.00;99.90;;;;;;5036477;28;20355;-69
2022/03/04 01:35:23;;;;;;;21.83;8.20;;;1.00;99.90;;;;;;5034256;28;20090;-69
2022/03/04 01:37:49;;;;;;;15.83;7.33;;;0.90;99.90;;;;;;5029738;28;20052;-69
2022/03/04 01:40:15;;;;;;;14.50;6.80;;;0.90;99.90;;;;;;5030205;28;20158;-69
2022/03/04 01:42:41;;;;;;;14.50;7.22;;;0.90;99.90;;;;;;5036775;28;20059;-69
2022/03/04 01:45:09;;;;;;;15.17;7.10;;;0.80;99.90;;;;;;5028127;28;20425;-69
2022/03/04 01:47:39;;;;;;;17.85;6.38;;;0.80;99.90;;;;;;5041318;28;20121;-70
2022/03/04 01:50:05;;;;;;;14.18;7.00;;;0.80;99.90;;;;;;5038543;28;20044;-69
2022/03/04 01:52:31;;;;;;;14.50;6.72;;;0.80;99.90;;;;;;5038338;28;20045;-72
2022/03/04 01:54:56;;;;;;;13.13;6.37;;;0.80;99.90;;;;;;5032461;28;20063;-78
2022/03/04 01:57:22;;;;;;;17.77;7.63;;;0.80;99.90;;;;;;5043187;28;20045;-72
2022/03/04 01:59:48;;;;;;;18.73;7.63;;;0.70;99.90;;;;;;5035324;28;20047;-77
2022/03/04 02:02:13;;;;;;;18.63;7.80;;;0.80;99.90;;;;;;5032262;28;20032;-71
2022/03/04 02:04:39;;;;;;;14.00;6.83;;;0.70;99.90;;;;;;5030056;28;20103;-70
2022/03/04 02:07:05;;;;;;;14.10;6.53;;;0.70;99.90;;;;;;5056595;28;20501;-70
2022/03/04 02:09:30;;;;;;;18.63;7.70;;;0.70;99.90;;;;;;5039505;28;20575;-70
2022/03/04 02:11:56;;;;;;;17.00;8.07;;;0.70;99.90;;;;;;5043741;28;20086;-70
2022/03/04 02:14:22;;;;;;;18.87;7.47;;;0.70;99.90;;;;;;5031639;28;20047;-70
2022/03/04 02:16:52;;;;;;;16.92;7.35;;;0.60;99.90;;;;;;5031521;28;20164;-70
2022/03/04 02:19:19;;;;;;;17.13;7.90;;;0.60;99.90;;;;;;5040959;28;20128;-70
2022/03/04 02:21:54;;;;;;;18.35;7.53;;;0.60;99.90;;;;;;5041168;28;20398;-70
2022/03/04 02:24:25;;;;;;;16.38;8.02;;;0.60;99.90;;;;;;5040497;28;20037;-70
2022/03/04 02:26:55;;;;;;;18.40;8.02;;;0.70;99.90;;;;;;5037460;28;20124;-70
2022/03/04 02:29:22;;;;;;;18.50;7.35;;;0.60;99.90;;;;;;5040515;28;20053;-70
2022/03/04 02:31:49;;;;;;;18.83;7.75;;;0.60;99.90;;;;;;5038793;28;20079;-70
2022/03/04 02:34:15;;;;;;;21.85;8.50;;;0.60;99.90;;;;;;5033354;28;20067;-70
2022/03/04 02:36:41;;;;;;;19.35;8.23;;;0.60;99.90;;;;;;5037293;28;20141;-70
2022/03/04 02:39:07;;;;;;;17.65;8.40;;;0.60;99.90;;;;;;5034349;28;20109;-70
2022/03/04 02:41:34;;;;;;;19.33;8.07;;;0.60;99.90;;;;;;5035898;28;20132;-70
2022/03/04 02:44:03;;;;;;;;;;;0.50;99.90;;;;;;5051717;28;20120;-70
2022/03/04 02:46:29;;;;;;;17.63;7.32;;;0.50;99.90;;;;;;5037237;28;20600;-70
2022/03/04 02:48:55;;;;;;;21.17;8.27;;;0.50;99.90;;;;;;5039459;28;20043;-70
2022/03/04 02:51:20;;;;;;;15.83;6.77;;;0.50;99.90;;;;;;5040821;28;20045;-70
2022/03/04 02:53:46;;;;;;;14.30;7.47;;;0.40;99.90;;;;;;5032235;28;20030;-70
2022/03/04 02:56:12;;;;;;;16.05;7.75;;;0.50;99.90;;;;;;5043400;28;20045;-70
2022/03/04 02:58:38;;;;;;;16.70;7.57;;;0.40;99.90;;;;;;5037848;28;20544;-70
2022/03/04 03:01:04;;;;;;;20.67;8.50;;;0.40;99.90;;;;;;5047033;28;20836;-70
2022/03/04 03:03:29;;;;;;;18.33;7.87;;;0.40;99.90;;;;;;5039668;28;20051;-70
2022/03/04 03:05:55;;;;;;;22.50;9.37;;;0.40;99.90;;;;;;5039664;28;20340;-70
2022/03/04 03:08:20;;;;;;;19.03;8.10;;;0.40;99.90;;;;;;5036428;28;20044;-70
2022/03/04 03:10:46;;;;;;;18.03;8.20;;;0.40;99.90;;;;;;5036906;28;20055;-69
2022/03/04 03:13:12;;;;;;;22.43;8.93;;;0.40;99.90;;;;;;5044056;28;20041;-70
2022/03/04 03:15:40;;;;;;;21.67;8.47;;;0.40;99.90;;;;;;5035828;28;20123;-70
2022/03/04 03:18:06;;;;;;;21.08;8.48;;;0.40;99.90;;;;;;5026911;28;20432;-70
2022/03/04 03:20:33;;;;;;;18.40;8.70;;;0.40;99.90;;;;;;5041625;28;20044;-70
2022/03/04 03:22:59;;;;;;;19.98;8.57;;;0.30;99.90;;;;;;5038920;28;20048;-70
2022/03/04 03:25:24;;;;;;;21.27;8.93;;;0.30;99.90;;;;;;5044518;28;20046;-70
2022/03/04 03:27:50;;;;;;;19.13;8.20;;;0.30;99.90;;;;;;5039601;28;20330;-70
2022/03/04 03:30:15;;;;;;;22.47;9.13;;;0.30;99.90;;;;;;5041478;28;20291;-70
2022/03/04 03:32:41;;;;;;;18.83;8.80;;;0.30;99.90;;;;;;5042529;28;20037;-70
2022/03/04 03:35:08;;;;;;;20.47;9.17;;;0.30;99.90;;;;;;5038532;28;20055;-69
2022/03/04 03:37:34;;;;;;;19.42;8.60;;;0.30;99.90;;;;;;5038890;28;20071;-70
2022/03/04 03:40:01;;;;;;;32.35;10.00;;;0.30;99.90;;;;;;5026052;28;20553;-70
2022/03/04 03:42:26;;;;;;;19.92;8.80;;;0.30;99.90;;;;;;5036802;28;20051;-69
2022/03/04 03:44:52;;;;;;;19.97;8.40;;;0.30;99.90;;;;;;5036901;28;20029;-69
2022/03/04 03:47:17;;;;;;;18.87;8.83;;;0.20;99.90;;;;;;5030422;28;20036;-70
2022/03/04 03:49:43;;;;;;;24.57;9.30;;;0.20;99.90;;;;;;5034542;28;20033;-69
2022/03/04 03:52:09;;;;;;;19.10;7.87;;;0.20;99.90;;;;;;5035571;28;20112;-70
2022/03/04 03:54:34;;;;;;;20.70;9.77;;;0.20;99.90;;;;;;5032099;28;20064;-69
2022/03/04 03:57:00;;;;;;;23.87;8.87;;;0.10;99.90;;;;;;5042930;28;20073;-70
2022/03/04 03:59:25;;;;;;;20.10;8.07;;;0.20;99.90;;;;;;5039719;28;20039;-69
2022/03/04 04:01:54;;;;;;;23.77;8.93;;;0.10;99.90;;;;;;5032600;28;20040;-69
2022/03/04 04:04:19;;;;;;;23.27;9.88;;;0.10;99.90;;;;;;5039649;28;20036;-71
2022/03/04 04:06:46;;;;;;;20.13;9.10;;;0.10;99.90;;;;;;5037577;28;20040;-71
2022/03/04 04:09:11;;;;;;;25.67;10.15;;;0.10;99.90;;;;;;5030150;28;20049;-72
2022/03/04 04:11:39;;;;;;;24.07;9.30;;;0.00;99.90;;;;;;5037608;28;20052;-70
2022/03/04 04:14:06;;;;;;;21.90;9.70;;;0.10;99.90;;;;;;5040128;28;20593;-69
2022/03/04 04:16:32;;;;;;;23.75;9.45;;;0.00;99.90;;;;;;5037413;28;20109;-69
2022/03/04 04:18:58;;;;;;;23.10;8.73;;;0.00;99.90;;;;;;5040744;28;20569;-69
2022/03/04 04:21:24;;;;;;;22.77;10.07;;;0.00;99.90;;;;;;5039877;28;20041;-69
2022/03/04 04:23:51;;;;;;;21.98;8.93;;;0.00;99.90;;;;;;5039700;28;20163;-70
2022/03/04 04:26:17;;;;;;;22.33;9.48;;;0.00;99.90;;;;;;5040958;28;20055;-69
2022/03/04 04:28:43;;;;;;;20.60;9.37;;;0.00;99.90;;;;;;5043751;28;20124;-69
2022/03/04 04:31:08;;;;;;;20.37;10.10;;;-0.10;99.90;;;;;;5045491;28;20110;-69
2022/03/04 04:33:34;;;;;;;20.17;9.40;;;-0.10;99.90;;;;;;5040889;28;20037;-69
2022/03/04 04:35:59;;;;;;;22.93;8.90;;;-0.10;99.90;;;;;;5036730;28;20033;-69
2022/03/04 04:38:25;;;;;;;22.80;10.10;;;-0.20;99.90;;;;;;5044054;28;20276;-69
2022/03/04 04:40:50;;;;;;;22.90;10.73;;;-0.10;99.90;;;;;;5037045;28;20594;-69
2022/03/04 04:43:16;;;;;;;21.47;9.80;;;-0.10;99.90;;;;;;5040886;28;20070;-70
2022/03/04 04:45:42;;;;;;;26.13;10.57;;;-0.20;99.90;;;;;;5039214;28;20120;-69
2022/03/04 04:48:07;;;;;;;26.00;10.17;;;-0.20;99.90;;;;;;5042397;28;20090;-69
2022/03/04 04:50:33;;;;;;;20.03;9.57;;;-0.20;99.90;;;;;;5038171;28;20030;-70
2022/03/04 04:52:58;;;;;;;21.17;8.53;;;-0.20;99.90;;;;;;5042903;28;20342;-69
2022/03/04 04:55:26;;;;;;;22.13;9.83;;;-0.20;99.90;;;;;;5018629;28;20041;-69
2022/03/04 04:57:52;;;;;;;24.83;10.07;;;-0.20;99.90;;;;;;5038758;28;20045;-69
2022/03/04 05:00:17;;;;;;;23.77;9.77;;;-0.20;99.90;;;;;;5023946;28;20829;-69
2022/03/04 05:02:44;;;;;;;24.17;9.50;;;-0.20;99.90;;;;;;5036305;28;20445;-70
2022/03/04 05:05:10;;;;;;;22.50;9.43;;;-0.30;99.90;;;;;;5035829;28;20444;-69
2022/03/04 05:07:38;;;;;;;19.35;9.52;;;-0.30;99.90;;;;;;5037130;28;20037;-69
2022/03/04 05:10:07;;;;;;;25.48;10.38;;;-0.30;99.90;;;;;;5038703;28;20045;-69
2022/03/04 05:12:33;;;;;;;23.80;10.45;;;-0.30;99.90;;;;;;5038220;28;20037;-69
2022/03/04 05:14:58;;;;;;;27.83;10.93;;;-0.30;99.90;;;;;;5026091;28;20555;-69
2022/03/04 05:17:24;;;;;;;24.50;9.23;;;-0.40;99.90;;;;;;5023957;28;20037;-69
2022/03/04 05:19:50;;;;;;;24.87;9.33;;;-0.30;99.90;;;;;;5037323;28;20045;-69
2022/03/04 05:22:16;;;;;;;20.58;10.25;;;-0.30;99.90;;;;;;5035781;28;20072;-69
2022/03/04 05:24:42;;;;;;;23.33;9.80;;;-0.40;99.90;;;;;;5036416;28;20069;-69
2022/03/04 05:27:08;;;;;;;22.80;9.53;;;-0.40;99.90;;;;;;5038756;28;20481;-70
2022/03/04 05:29:34;;;;;;;26.75;10.80;;;-0.40;99.90;;;;;;5041905;28;20060;-69
2022/03/04 05:32:00;;;;;;;25.38;10.15;;;-0.50;99.90;;;;;;5039684;28;20449;-69
2022/03/04 05:34:25;;;;;;;23.55;9.82;;;-0.40;99.90;;;;;;5035973;28;20041;-69
2022/03/04 05:36:51;;;;;;;20.97;8.83;;;-0.50;99.90;;;;;;5034833;28;20500;-69
2022/03/04 05:39:17;;;;;;;20.73;9.40;;;-0.50;99.90;;;;;;5035323;28;20189;-69
2022/03/04 05:41:42;;;;;;;25.77;10.33;;;-0.50;99.90;;;;;;5042424;28;20185;-69
2022/03/04 05:44:08;;;;;;;25.47;9.97;;;-0.60;99.90;;;;;;5038252;28;20071;-69
2022/03/04 05:46:34;;;;;;;23.53;10.03;;;-0.60;99.90;;;;;;5026601;28;20622;-69
2022/03/04 05:49:00;;;;;;;22.67;9.77;;;-0.60;99.90;;;;;;5041993;28;20072;-69
2022/03/04 05:51:26;;;;;;;29.65;10.02;;;-0.70;99.90;;;;;;5032066;28;20312;-69
2022/03/04 05:53:51;;;;;;;24.53;10.00;;;-0.70;99.90;;;;;;5042146;28;20478;-69
2022/03/04 05:56:18;;;;;;;19.93;9.33;;;-0.70;99.90;;;;;;5031527;28;20038;-69
2022/03/04 05:58:45;;;;;;;25.75;10.40;;;-0.70;99.90;;;;;;5034122;28;21889;-69
2022/03/04 06:01:11;;;;;;;28.73;12.15;;;-0.70;99.90;;;;;;5041505;28;20029;-69
2022/03/04 06:03:37;;;;;;;28.55;11.60;;;-0.70;99.90;;;;;;5023673;28;20033;-69
2022/03/04 06:06:03;;;;;;;24.93;10.80;;;-0.70;99.90;;;;;;5037753;28;20464;-69
2022/03/04 06:08:32;;;;;;;26.10;10.55;;;-0.70;99.90;;;;;;5038831;28;20045;-69
2022/03/04 06:10:58;;;;;;;26.17;11.25;;;-0.60;99.90;;;;;;5028519;28;20397;-69
2022/03/04 06:13:24;;;;;;;28.53;12.37;;;-0.60;99.90;;;;;;5040572;28;20049;-69
2022/03/04 06:15:50;;;;;;;24.70;10.77;;;-0.60;99.90;;;;;;5037826;28;20095;-69
2022/03/04 06:18:16;;;;;;;29.23;10.07;;;-0.60;99.90;;;;;;5035948;28;20033;-69
2022/03/04 06:20:42;;;;;;;27.60;11.10;;;-0.60;99.90;;;;;;5041754;28;20091;-69
2022/03/04 06:23:08;;;;;;;28.93;11.60;;;-0.60;99.90;;;;;;5035756;28;20112;-70
2022/03/04 06:25:33;;;;;;;32.15;11.40;;;-0.50;99.90;;;;;;5042105;28;20122;-68
2022/03/04 06:28:01;;;;;;;30.20;11.37;;;-0.50;99.90;;;;;;5040957;28;20037;-69
2022/03/04 06:30:30;;;;;;;28.52;11.43;;;-0.50;99.90;;;;;;5040978;28;20037;-69
2022/03/04 06:35:45;;;;;;;29.38;13.40;;;-0.40;99.90;;;;;;5032841;28;20053;-69
2022/03/04 06:38:11;;;;;;;27.48;12.18;;;-0.30;99.90;;;;;;5042050;28;20033;-69
2022/03/04 06:40:38;;;;;;;28.58;11.63;;;-0.30;99.90;;;;;;5029456;28;20090;-69
2022/03/04 06:43:07;;;;;;;25.83;12.35;;;-0.30;99.90;;;;;;5034382;28;20326;-69
2022/03/04 06:45:33;;;;;;;29.35;12.65;;;-0.30;99.90;;;;;;5035495;28;20409;-69
2022/03/04 06:47:59;;;;;;;27.20;11.13;;;-0.20;99.90;;;;;;5035592;28;20066;-69
2022/03/04 06:50:26;;;;;;;26.97;11.80;;;-0.30;99.90;;;;;;5028236;28;20432;-69
2022/03/04 06:52:52;;;;;;;;;;;-0.20;99.90;;;;;;5048797;28;20432;-69
2022/03/04 06:55:17;;;;;;;30.00;11.90;;;-0.20;99.90;;;;;;5042392;28;19920;-69
2022/03/04 06:57:43;;;;;;;31.13;12.57;;;-0.20;99.90;;;;;;5038749;28;20040;-69
2022/03/04 07:00:10;;;;;;;30.80;11.80;;;-0.20;99.90;;;;;;5112145;22;20564;-69
2022/03/04 07:02:37;;;;;;;29.08;11.30;;;-0.20;99.90;;;;;;5058750;28;20103;-69
2022/03/04 07:05:07;;;;;;;28.60;11.55;;;-0.10;99.90;;;;;;5043644;28;20037;-69
2022/03/04 07:07:33;;;;;;;33.28;13.13;;;-0.10;99.90;;;;;;5043180;28;20048;-69
2022/03/04 07:09:59;;;;;;;28.77;12.13;;;-0.10;99.90;;;;;;5034006;28;20037;-69
2022/03/04 07:12:24;;;;;;;31.97;13.13;;;-0.10;99.90;;;;;;5042797;28;20466;-69
2022/03/04 07:14:51;;;;;;;23.57;10.30;;;0.00;99.90;;;;;;5026998;28;20323;-70
2022/03/04 07:17:17;;;;;;;31.92;12.32;;;0.00;99.90;;;;;;5056001;28;20504;-69
2022/03/04 07:19:42;;;;;;;28.23;12.02;;;0.10;99.90;;;;;;5045182;28;20676;-69
2022/03/04 07:22:08;;;;;;;28.13;11.80;;;0.00;99.90;;;;;;5048542;28;20041;-69
2022/03/04 07:24:34;;;;;;;26.87;10.83;;;0.10;99.90;;;;;;5043700;28;20044;-70
2022/03/04 07:26:59;;;;;;;31.47;12.10;;;0.10;99.90;;;;;;5036624;28;20053;-69
2022/03/04 07:29:25;;;;;;;35.97;12.60;;;0.10;99.90;;;;;;5043167;28;20056;-69
2022/03/04 07:31:53;;;;;;;31.33;12.75;;;0.10;99.90;;;;;;5045176;28;20068;-69
2022/03/04 07:34:19;;;;;;;30.70;12.57;;;0.10;99.90;;;;;;5032966;28;20120;-69
2022/03/04 07:36:45;;;;;;;28.90;12.48;;;0.20;99.90;;;;;;5036779;28;20198;-70
2022/03/04 07:39:11;;;;;;;35.10;12.90;;;0.20;99.90;;;;;;5048552;28;20144;-69
2022/03/04 07:41:37;;;;;;;27.23;12.47;;;0.20;99.90;;;;;;5029393;28;20079;-70
2022/03/04 07:44:03;;;;;;;27.60;13.40;;;0.30;99.90;;;;;;5041429;28;20072;-70
2022/03/04 07:46:29;;;;;;;29.83;12.60;;;0.30;99.90;;;;;;5043127;28;20119;-69
2022/03/04 07:48:54;;;;;;;29.13;12.60;;;0.40;99.90;;;;;;5035879;28;20426;-69
2022/03/04 07:51:20;;;;;;;35.47;12.63;;;0.40;99.90;;;;;;5024983;28;20440;-70
2022/03/04 07:53:45;;;;;;;32.67;13.17;;;0.40;99.90;;;;;;5024728;28;20040;-71
2022/03/04 07:56:11;;;;;;;29.27;12.33;;;0.40;99.90;;;;;;5042059;28;20366;-70
2022/03/04 07:58:37;;;;;;;29.73;12.30;;;0.40;99.90;;;;;;5043932;28;20353;-70
2022/03/04 08:01:03;;;;;;;30.83;13.38;;;0.50;99.90;;;;;;5034668;28;20029;-70
2022/03/04 08:03:29;;;;;;;37.70;12.95;;;0.50;99.90;;;;;;5040621;28;20354;-70
2022/03/04 08:05:55;;;;;;;32.33;13.00;;;0.50;99.90;;;;;;5038974;28;20504;-70
2022/03/04 08:08:21;;;;;;;29.50;12.83;;;0.50;99.90;;;;;;5041625;28;20115;-70
2022/03/04 08:10:46;;;;;;;35.60;13.83;;;0.50;99.90;;;;;;5023671;28;20129;-70
2022/03/04 08:13:12;;;;;;;32.37;13.13;;;0.50;99.90;;;;;;5043123;28;20095;-70
2022/03/04 08:15:38;;;;;;;32.07;13.33;;;0.60;99.90;;;;;;5037253;28;20037;-70
2022/03/04 08:18:03;;;;;;;28.33;12.63;;;0.60;99.90;;;;;;5041982;28;20049;-70
2022/03/04 08:20:31;;;;;;;29.07;12.37;;;0.70;99.90;;;;;;5032677;28;20048;-70
2022/03/04 08:22:57;;;;;;;26.67;12.50;;;0.70;99.90;;;;;;5030830;28;20052;-70
2022/03/04 08:25:23;;;;;;;29.60;12.65;;;0.70;99.90;;;;;;5036991;28;20037;-71
2022/03/04 08:27:50;;;;;;;28.43;13.33;;;0.60;99.90;;;;;;5037139;28;20386;-70
2022/03/04 08:30:16;;;;;;;28.00;12.85;;;0.70;99.90;;;;;;5041690;28;20494;-70
2022/03/04 08:32:41;;;;;;;33.07;13.17;;;0.70;99.90;;;;;;5032015;28;20039;-70
2022/03/04 08:35:08;;;;;;;35.87;14.13;;;0.70;99.90;;;;;;5029674;28;20128;-71
2022/03/04 08:37:34;;;;;;;35.28;14.70;;;0.80;99.90;;;;;;5034524;28;20144;-71
2022/03/04 08:40:01;;;;;;;30.98;12.88;;;0.90;99.90;;;;;;5037211;28;20398;-71
2022/03/04 08:42:27;;;;;;;31.42;14.35;;;0.90;99.90;;;;;;5044551;28;20041;-74
2022/03/04 08:44:54;;;;;;;32.53;12.40;;;1.00;99.90;;;;;;5044725;28;20580;-74
2022/03/04 08:47:19;;;;;;;27.00;12.45;;;1.10;99.90;;;;;;5026969;28;20635;-73
2022/03/04 08:49:45;;;;;;;29.33;13.57;;;1.10;99.90;;;;;;5042391;28;20038;-71
2022/03/04 08:52:11;;;;;;;30.07;12.67;;;1.10;99.90;;;;;;5043505;28;20036;-71
2022/03/04 08:54:37;;;;;;;31.43;13.53;;;1.20;99.90;;;;;;5044110;28;20040;-72
2022/03/04 08:57:03;;;;;;;32.15;13.57;;;1.20;99.90;;;;;;5039352;28;20045;-71
2022/03/04 08:59:29;;;;;;;28.75;12.38;;;1.30;99.90;;;;;;5033125;28;20490;-74
2022/03/04 09:01:56;;;;;;;29.77;13.03;;;1.30;99.90;;;;;;5045201;28;20104;-75
2022/03/04 09:04:23;;;;;;;30.42;13.18;;;1.40;99.90;;;;;;5029884;28;20857;-71
2022/03/04 09:06:49;;;;;;;34.55;14.25;;;1.40;99.90;;;;;;5036477;28;20509;-70
2022/03/04 09:09:15;;;;;;;31.00;12.98;;;1.50;99.90;;;;;;5032710;28;20060;-70
2022/03/04 09:11:43;;;;;;;30.83;11.68;;;1.60;99.90;;;;;;5033583;28;20044;-70
2022/03/04 09:14:09;;;;;;;29.27;13.32;;;1.70;99.90;;;;;;5032622;28;20049;-71
2022/03/04 09:16:34;;;;;;;26.23;12.23;;;1.80;99.90;;;;;;5041199;28;20512;-71
2022/03/04 09:19:00;;;;;;;30.07;14.23;;;1.80;99.90;;;;;;5032300;28;20041;-71
2022/03/04 09:21:26;;;;;;;28.17;13.00;;;1.80;99.90;;;;;;5037394;28;20044;-73
2022/03/04 09:23:52;;;;;;;24.17;11.93;;;1.90;99.90;;;;;;5032667;28;20041;-71
2022/03/04 09:26:18;;;;;;;25.85;11.98;;;2.00;99.90;;;;;;5032044;28;20049;-69
2022/03/04 09:28:44;;;;;;;25.43;11.57;;;2.10;99.90;;;;;;5047740;28;20406;-72
2022/03/04 09:31:10;;;;;;;24.67;11.73;;;2.20;99.90;;;;;;5035085;28;20305;-71
2022/03/04 09:33:35;;;;;;;29.50;11.87;;;2.20;99.90;;;;;;5020574;28;20049;-71
2022/03/04 09:36:02;;;;;;;26.87;12.27;;;2.10;99.90;;;;;;5041093;28;20063;-71
2022/03/04 09:38:28;;;;;;;26.15;12.18;;;2.20;99.90;;;;;;5029456;28;20326;-70
2022/03/04 09:40:54;;;;;;;28.83;12.40;;;2.30;99.90;;;;;;5032374;28;20037;-71
2022/03/04 09:43:22;;;;;;;22.87;11.07;;;2.40;99.90;;;;;;5035057;28;20078;-70
2022/03/04 09:45:49;;;;;;;23.30;12.10;;;2.60;99.90;;;;;;5035256;28;20038;-70
2022/03/04 09:48:16;;;;;;;26.02;11.43;;;2.70;99.90;;;;;;5034066;28;20052;-71
2022/03/04 09:50:48;;;;;;;27.50;11.65;;;2.80;99.90;;;;;;5033294;28;20045;-70
2022/03/04 09:53:15;;;;;;;25.50;12.00;;;2.90;99.90;;;;;;5030825;28;20055;-71
2022/03/04 09:55:42;;;;;;;24.90;12.02;;;3.00;99.90;;;;;;5015788;28;20115;-71
2022/03/04 09:58:13;;;;;;;21.80;11.52;;;3.00;99.90;;;;;;5033445;28;20048;-70
2022/03/04 10:00:40;;;;;;;27.30;12.18;;;3.10;99.90;;;;;;5015663;28;20043;-70
2022/03/04 10:03:11;;;;;;;24.77;11.05;;;3.20;99.90;;;;;;5028694;28;20044;-71
2022/03/04 10:05:51;;;;;;;27.30;11.98;;;3.20;99.90;;;;;;5031980;28;20567;-71
2022/03/04 10:08:21;;;;;;;26.50;11.10;;;3.30;99.90;;;;;;5036043;28;20072;-71
2022/03/04 10:10:52;;;;;;;25.05;11.90;;;3.40;99.90;;;;;;5039969;28;20052;-72
2022/03/04 10:13:38;;;;;;;22.27;10.55;;;3.60;99.90;;;;;;5027805;28;20120;-71
2022/03/04 10:16:04;;;;;;;22.90;10.40;;;3.70;99.90;;;;;;5032141;28;20036;-71
2022/03/04 10:18:30;;;;;;;20.77;10.63;;;3.80;99.90;;;;;;5035100;28;20045;-71
2022/03/04 10:20:56;;;;;;;25.95;10.85;;;4.00;99.90;;;;;;5035362;28;20038;-71
2022/03/04 10:23:26;;;;;;;18.90;9.53;;;4.10;99.90;;;;;;5033450;28;20100;-71
2022/03/04 10:25:54;;;;;;;19.17;9.48;;;4.10;99.90;;;;;;5036553;28;20037;-71
2022/03/04 10:28:25;;;;;;;21.52;10.68;;;4.30;99.90;;;;;;5032672;28;20037;-71
2022/03/04 10:30:52;;;;;;;20.98;10.00;;;4.40;99.90;;;;;;5038287;28;20072;-71
2022/03/04 10:33:20;;;;;;;22.10;10.13;;;4.60;99.90;;;;;;5027842;28;20038;-68
2022/03/04 10:36:04;;;;;;;29.15;11.60;;;4.70;99.90;;;;;;5031715;28;20048;-67
2022/03/04 10:38:30;;;;;;;24.77;10.77;;;4.80;99.90;;;;;;5033326;28;21776;-67
2022/03/04 10:40:55;;;;;;;19.00;10.77;;;4.90;99.90;;;;;;5034893;28;20136;-68
2022/03/04 10:43:30;;;;;;;19.03;10.13;;;5.00;99.90;;;;;;5040485;28;20051;-68
2022/03/04 10:46:05;;;;;;;22.60;9.70;;;5.10;99.90;;;;;;5039904;28;20407;-68
2022/03/04 10:48:35;;;;;;;18.40;9.93;;;5.20;99.90;;;;;;5037465;28;20041;-68
2022/03/04 10:51:04;;;;;;;20.08;10.00;;;5.30;99.90;;;;;;5035401;28;20091;-68
2022/03/04 10:53:32;;;;;;;19.70;10.10;;;5.30;99.90;;;;;;5031121;28;20060;-68
2022/03/04 10:55:58;;;;;;;18.13;9.63;;;5.40;99.90;;;;;;5036846;28;20129;-73
2022/03/04 10:58:29;;;;;;;18.75;10.20;;;5.40;99.90;;;;;;5040238;28;20530;-73
2022/03/04 11:00:57;;;;;;;18.58;8.82;;;5.50;99.90;;;;;;5035197;28;20040;-73
2022/03/04 11:03:28;;;;;;;17.92;9.25;;;5.60;99.90;;;;;;5039247;28;20029;-68
2022/03/04 11:06:03;;;;;;;16.02;9.20;;;5.70;99.90;;;;;;5041048;28;20386;-67
2022/03/04 11:08:29;;;;;;;20.40;10.65;;;5.80;99.90;;;;;;5037011;28;20048;-68
2022/03/04 11:10:56;;;;;;;19.73;9.90;;;5.90;99.90;;;;;;5034881;28;20041;-68
2022/03/04 11:13:23;;;;;;;19.13;10.05;;;6.00;99.90;;;;;;5046480;28;20029;-67
2022/03/04 11:15:50;;;;;;;24.15;10.50;;;6.10;99.90;;;;;;5034217;28;20514;-68
2022/03/04 11:18:18;;;;;;;25.13;10.35;;;6.10;99.90;;;;;;5036182;28;20045;-67
2022/03/04 11:20:47;;;;;;;18.90;10.02;;;6.20;99.90;;;;;;5036567;28;20045;-67
2022/03/04 11:23:19;;;;;;;20.73;10.07;;;6.30;99.90;;;;;;5031459;28;20104;-68
2022/03/04 11:25:51;;;;;;;21.27;10.35;;;6.40;99.90;;;;;;5034947;28;20037;-67
2022/03/04 11:28:18;;;;;;;18.45;9.88;;;6.50;99.90;;;;;;5040692;28;20094;-68
2022/03/04 11:30:47;;;;;;;23.83;10.40;;;6.70;99.90;;;;;;5031857;28;20127;-68
2022/03/04 11:33:16;;;;;;;20.33;10.15;;;6.70;99.90;;;;;;5028966;28;20260;-68
2022/03/04 11:35:41;;;;;;;17.77;9.88;;;6.80;99.90;;;;;;5032089;28;20430;-68
2022/03/04 11:38:08;;;;;;;18.67;9.17;;;6.90;99.90;;;;;;5036860;28;20049;-68
2022/03/04 11:40:35;;;;;;;19.30;10.00;;;7.00;99.90;;;;;;5031422;28;20171;-67
2022/03/04 11:43:02;;;;;;;16.25;8.88;;;7.00;99.90;;;;;;5028335;28;20146;-68
2022/03/04 11:45:32;;;;;;;17.60;8.77;;;7.00;99.90;;;;;;5030444;28;20249;-67
2022/03/04 11:48:13;;;;;;;18.10;9.63;;;7.20;99.90;;;;;;5033736;28;20049;-67
2022/03/04 11:50:45;;;;;;;17.67;8.65;;;7.30;99.90;;;;;;5038573;28;20044;-68
2022/03/04 11:53:18;;;;;;;16.27;9.07;;;7.50;99.90;;;;;;5036881;28;20040;-67
2022/03/04 11:56:18;;;;;;;17.23;8.88;;;7.60;99.90;;;;;;5034724;28;20125;-67
2022/03/04 11:58:56;;;;;;;19.33;9.68;;;7.80;99.40;;;;;;5038997;28;20068;-67
2022/03/04 12:01:44;;;;;;;17.67;9.00;;;7.80;99.00;;;;;;5033019;28;20068;-67
2022/03/04 12:04:18;;;;;;;17.60;9.13;;;7.90;95.30;;;;;;5039595;28;20051;-67
2022/03/04 12:07:07;;;;;;;20.00;10.05;;;8.00;98.10;;;;;;5041932;28;20052;-66
2022/03/04 12:09:33;;;;;;;21.20;10.23;;;8.10;96.30;;;;;;5020943;28;20063;-72
2022/03/04 12:12:20;;;;;;;17.07;9.53;;;8.20;98.90;;;;;;5041094;28;20037;-73
2022/03/04 12:14:54;;;;;;;16.83;9.13;;;8.30;93.40;;;;;;5037350;28;20283;-72
2022/03/04 12:17:21;;;;;;;15.13;8.38;;;8.40;94.30;;;;;;5039877;28;20037;-73
2022/03/04 12:19:48;;;;;;;16.33;8.75;;;8.50;92.90;;;;;;5032039;28;20187;-73
2022/03/04 12:22:16;;;;;;;18.08;9.60;;;8.70;91.60;;;;;;5028727;28;20041;-75
2022/03/04 12:24:53;;;;;;;17.98;9.77;;;8.80;91.80;;;;;;5045681;28;20124;-73
2022/03/04 12:27:40;;;;;;;19.08;9.77;;;9.00;86.80;;;;;;5039178;28;20501;-73
2022/03/04 12:30:22;;;;;;;15.68;8.13;;;9.00;86.90;;;;;;5041601;28;20486;-73
2022/03/04 12:32:53;;;;;;;17.85;9.10;;;9.10;85.10;;;;;;5014906;28;20044;-73
2022/03/04 12:35:21;;;;;;;15.98;8.15;;;9.20;86.40;;;;;;5035296;28;20128;-73
2022/03/04 12:37:47;;;;;;;19.65;8.70;;;9.30;85.80;;;;;;5033567;28;20337;-73
2022/03/04 12:40:13;;;;;;;16.63;8.15;;;9.30;85.10;;;;;;5032928;28;20128;-74
2022/03/04 12:42:39;;;;;;;13.65;7.85;;;9.40;79.60;;;;;;5039861;28;20037;-73